sensor_id;sensor_type;location;lat;lon;timestamp;P1;durP1;ratioP1;P2;durP2;ratioP2
15202;SDS011;7702;51.046;5.184;2024-01-30T00:01:43;8.37;;;7.50;;
15202;SDS011;7702;51.046;5.184;2024-01-30T00:04:10;10.77;;;7.63;;
15202;SDS011;7702;51.046;5.184;2024-01-30T00:06:36;8.83;;;7.60;;
15202;SDS011;7702;51.046;5.184;2024-01-30T00:09:02;9.80;;;7.70;;
15202;SDS011;7702;51.046;5.184;2024-01-30T00:11:30;8.20;;;7.43;;
15202;SDS011;7702;51.046;5.184;2024-01-30T00:13:56;8.93;;;7.93;;
15202;SDS011;7702;51.046;5.184;2024-01-30T00:16:23;9.03;;;7.63;;
15202;SDS011;7702;51.046;5.184;2024-01-30T00:18:49;8.37;;;7.00;;
15202;SDS011;7702;51.046;5.184;2024-01-30T00:21:19;10.30;;;7.43;;
15202;SDS011;7702;51.046;5.184;2024-01-30T00:23:45;9.70;;;7.53;;
15202;SDS011;7702;51.046;5.184;2024-01-30T00:26:11;9.37;;;7.00;;
15202;SDS011;7702;51.046;5.184;2024-01-30T00:28:37;12.33;;;7.33;;
15202;SDS011;7702;51.046;5.184;2024-01-30T00:31:03;7.57;;;6.83;;
15202;SDS011;7702;51.046;5.184;2024-01-30T00:33:29;9.40;;;7.73;;
15202;SDS011;7702;51.046;5.184;2024-01-30T00:35:55;8.67;;;7.53;;
15202;SDS011;7702;51.046;5.184;2024-01-30T00:38:21;9.33;;;7.90;;
15202;SDS011;7702;51.046;5.184;2024-01-30T00:40:47;8.00;;;7.20;;
15202;SDS011;7702;51.046;5.184;2024-01-30T00:43:13;9.43;;;7.17;;
15202;SDS011;7702;51.046;5.184;2024-01-30T00:45:40;9.57;;;7.70;;
15202;SDS011;7702;51.046;5.184;2024-01-30T00:48:06;9.43;;;7.83;;
15202;SDS011;7702;51.046;5.184;2024-01-30T00:50:31;9.37;;;7.77;;
15202;SDS011;7702;51.046;5.184;2024-01-30T00:52:57;9.23;;;7.63;;
15202;SDS011;7702;51.046;5.184;2024-01-30T00:55:23;10.20;;;8.03;;
15202;SDS011;7702;51.046;5.184;2024-01-30T00:57:49;9.40;;;7.37;;
15202;SDS011;7702;51.046;5.184;2024-01-30T01:00:15;8.27;;;7.33;;
15202;SDS011;7702;51.046;5.184;2024-01-30T01:02:45;8.67;;;7.77;;
15202;SDS011;7702;51.046;5.184;2024-01-30T01:05:11;10.23;;;7.53;;
15202;SDS011;7702;51.046;5.184;2024-01-30T01:07:37;8.83;;;7.13;;
15202;SDS011;7702;51.046;5.184;2024-01-30T01:10:03;8.70;;;7.03;;
15202;SDS011;7702;51.046;5.184;2024-01-30T01:12:29;7.63;;;6.80;;
15202;SDS011;7702;51.046;5.184;2024-01-30T01:14:55;10.57;;;7.93;;
15202;SDS011;7702;51.046;5.184;2024-01-30T01:17:20;8.40;;;7.43;;
15202;SDS011;7702;51.046;5.184;2024-01-30T01:19:46;9.33;;;7.83;;
15202;SDS011;7702;51.046;5.184;2024-01-30T01:22:12;8.60;;;7.53;;
15202;SDS011;7702;51.046;5.184;2024-01-30T01:24:37;7.63;;;6.90;;
15202;SDS011;7702;51.046;5.184;2024-01-30T01:27:04;9.57;;;7.60;;
15202;SDS011;7702;51.046;5.184;2024-01-30T01:29:31;10.67;;;7.00;;
15202;SDS011;7702;51.046;5.184;2024-01-30T01:31:57;11.03;;;7.70;;
15202;SDS011;7702;51.046;5.184;2024-01-30T01:34:23;8.83;;;7.20;;
15202;SDS011;7702;51.046;5.184;2024-01-30T01:36:50;11.20;;;7.63;;
15202;SDS011;7702;51.046;5.184;2024-01-30T01:39:16;10.43;;;7.73;;
15202;SDS011;7702;51.046;5.184;2024-01-30T01:41:42;7.63;;;6.93;;
15202;SDS011;7702;51.046;5.184;2024-01-30T01:44:08;9.70;;;6.97;;
15202;SDS011;7702;51.046;5.184;2024-01-30T01:46:35;13.27;;;8.00;;
15202;SDS011;7702;51.046;5.184;2024-01-30T01:49:02;8.87;;;7.30;;
15202;SDS011;7702;51.046;5.184;2024-01-30T01:51:29;10.13;;;6.53;;
15202;SDS011;7702;51.046;5.184;2024-01-30T01:53:57;8.93;;;6.57;;
15202;SDS011;7702;51.046;5.184;2024-01-30T01:56:25;8.87;;;7.07;;
15202;SDS011;7702;51.046;5.184;2024-01-30T01:58:54;10.10;;;7.10;;
15202;SDS011;7702;51.046;5.184;2024-01-30T02:01:20;10.30;;;7.10;;
15202;SDS011;7702;51.046;5.184;2024-01-30T02:03:48;9.60;;;6.60;;
15202;SDS011;7702;51.046;5.184;2024-01-30T02:06:14;9.47;;;7.50;;
15202;SDS011;7702;51.046;5.184;2024-01-30T02:08:41;10.20;;;7.30;;
15202;SDS011;7702;51.046;5.184;2024-01-30T02:11:08;13.00;;;8.20;;
15202;SDS011;7702;51.046;5.184;2024-01-30T02:13:35;12.63;;;8.33;;
15202;SDS011;7702;51.046;5.184;2024-01-30T02:16:01;10.67;;;8.63;;
15202;SDS011;7702;51.046;5.184;2024-01-30T02:18:27;13.93;;;9.83;;
15202;SDS011;7702;51.046;5.184;2024-01-30T02:20:53;15.17;;;8.90;;
15202;SDS011;7702;51.046;5.184;2024-01-30T02:23:21;12.67;;;8.73;;
15202;SDS011;7702;51.046;5.184;2024-01-30T02:25:50;10.87;;;8.60;;
15202;SDS011;7702;51.046;5.184;2024-01-30T02:28:18;10.57;;;7.73;;
15202;SDS011;7702;51.046;5.184;2024-01-30T02:30:44;8.67;;;7.43;;
15202;SDS011;7702;51.046;5.184;2024-01-30T02:33:11;7.27;;;6.57;;
15202;SDS011;7702;51.046;5.184;2024-01-30T02:35:39;9.70;;;6.77;;
15202;SDS011;7702;51.046;5.184;2024-01-30T02:38:05;7.57;;;6.53;;
15202;SDS011;7702;51.046;5.184;2024-01-30T02:40:31;9.47;;;6.60;;
15202;SDS011;7702;51.046;5.184;2024-01-30T02:42:58;10.27;;;7.80;;
15202;SDS011;7702;51.046;5.184;2024-01-30T02:45:25;10.23;;;8.50;;
15202;SDS011;7702;51.046;5.184;2024-01-30T02:47:50;9.10;;;7.00;;
15202;SDS011;7702;51.046;5.184;2024-01-30T02:50:17;8.50;;;6.80;;
15202;SDS011;7702;51.046;5.184;2024-01-30T02:52:43;9.20;;;6.80;;
15202;SDS011;7702;51.046;5.184;2024-01-30T02:55:09;8.87;;;6.90;;
15202;SDS011;7702;51.046;5.184;2024-01-30T02:57:35;8.40;;;7.07;;
15202;SDS011;7702;51.046;5.184;2024-01-30T03:00:01;8.63;;;6.60;;
15202;SDS011;7702;51.046;5.184;2024-01-30T03:02:28;7.87;;;7.07;;
15202;SDS011;7702;51.046;5.184;2024-01-30T03:04:54;7.83;;;7.07;;
15202;SDS011;7702;51.046;5.184;2024-01-30T03:07:20;6.67;;;5.97;;
15202;SDS011;7702;51.046;5.184;2024-01-30T03:09:45;7.63;;;6.37;;
15202;SDS011;7702;51.046;5.184;2024-01-30T03:12:11;7.33;;;6.43;;
15202;SDS011;7702;51.046;5.184;2024-01-30T03:14:36;7.20;;;6.30;;
15202;SDS011;7702;51.046;5.184;2024-01-30T03:17:02;8.43;;;7.17;;
15202;SDS011;7702;51.046;5.184;2024-01-30T03:19:29;7.87;;;7.07;;
15202;SDS011;7702;51.046;5.184;2024-01-30T03:21:54;9.53;;;7.63;;
15202;SDS011;7702;51.046;5.184;2024-01-30T03:24:20;8.60;;;6.37;;
15202;SDS011;7702;51.046;5.184;2024-01-30T03:26:46;7.73;;;6.77;;
15202;SDS011;7702;51.046;5.184;2024-01-30T03:29:11;8.03;;;6.43;;
15202;SDS011;7702;51.046;5.184;2024-01-30T03:31:38;7.17;;;6.33;;
15202;SDS011;7702;51.046;5.184;2024-01-30T03:34:04;7.60;;;6.50;;
15202;SDS011;7702;51.046;5.184;2024-01-30T03:36:30;7.37;;;6.67;;
15202;SDS011;7702;51.046;5.184;2024-01-30T03:38:58;6.67;;;5.67;;
15202;SDS011;7702;51.046;5.184;2024-01-30T03:41:23;7.83;;;6.33;;
15202;SDS011;7702;51.046;5.184;2024-01-30T03:43:49;7.83;;;6.60;;
15202;SDS011;7702;51.046;5.184;2024-01-30T03:46:15;8.27;;;6.43;;
15202;SDS011;7702;51.046;5.184;2024-01-30T03:48:42;8.63;;;7.07;;
15202;SDS011;7702;51.046;5.184;2024-01-30T03:51:08;8.00;;;6.60;;
15202;SDS011;7702;51.046;5.184;2024-01-30T03:53:39;10.23;;;6.70;;
15202;SDS011;7702;51.046;5.184;2024-01-30T03:56:08;9.37;;;6.47;;
15202;SDS011;7702;51.046;5.184;2024-01-30T03:58:35;9.50;;;6.27;;
15202;SDS011;7702;51.046;5.184;2024-01-30T04:01:00;9.80;;;6.77;;
15202;SDS011;7702;51.046;5.184;2024-01-30T04:03:26;8.43;;;6.27;;
15202;SDS011;7702;51.046;5.184;2024-01-30T04:05:52;9.73;;;7.27;;
15202;SDS011;7702;51.046;5.184;2024-01-30T04:08:18;7.80;;;7.00;;
15202;SDS011;7702;51.046;5.184;2024-01-30T04:10:44;8.43;;;6.47;;
15202;SDS011;7702;51.046;5.184;2024-01-30T04:13:10;8.60;;;6.30;;
15202;SDS011;7702;51.046;5.184;2024-01-30T04:15:36;6.90;;;6.27;;
15202;SDS011;7702;51.046;5.184;2024-01-30T04:18:02;8.80;;;6.83;;
15202;SDS011;7702;51.046;5.184;2024-01-30T04:20:27;7.47;;;6.57;;
15202;SDS011;7702;51.046;5.184;2024-01-30T04:22:54;8.23;;;6.70;;
15202;SDS011;7702;51.046;5.184;2024-01-30T04:25:20;8.57;;;6.93;;
15202;SDS011;7702;51.046;5.184;2024-01-30T04:27:46;8.37;;;6.50;;
15202;SDS011;7702;51.046;5.184;2024-01-30T04:30:11;9.13;;;7.13;;
15202;SDS011;7702;51.046;5.184;2024-01-30T04:32:37;8.30;;;7.40;;
15202;SDS011;7702;51.046;5.184;2024-01-30T04:35:03;9.50;;;6.77;;
15202;SDS011;7702;51.046;5.184;2024-01-30T04:37:29;9.10;;;6.97;;
15202;SDS011;7702;51.046;5.184;2024-01-30T04:39:55;7.67;;;6.80;;
15202;SDS011;7702;51.046;5.184;2024-01-30T04:42:21;7.10;;;6.40;;
15202;SDS011;7702;51.046;5.184;2024-01-30T04:44:46;6.83;;;6.00;;
15202;SDS011;7702;51.046;5.184;2024-01-30T04:47:12;7.13;;;6.10;;
15202;SDS011;7702;51.046;5.184;2024-01-30T04:49:41;8.93;;;6.83;;
15202;SDS011;7702;51.046;5.184;2024-01-30T04:52:07;9.77;;;6.13;;
15202;SDS011;7702;51.046;5.184;2024-01-30T04:54:34;8.37;;;6.90;;
15202;SDS011;7702;51.046;5.184;2024-01-30T04:57:01;6.23;;;5.73;;
15202;SDS011;7702;51.046;5.184;2024-01-30T04:59:27;7.47;;;6.10;;
15202;SDS011;7702;51.046;5.184;2024-01-30T05:01:53;7.23;;;6.53;;
15202;SDS011;7702;51.046;5.184;2024-01-30T05:04:18;7.83;;;5.73;;
15202;SDS011;7702;51.046;5.184;2024-01-30T05:06:44;8.90;;;6.20;;
15202;SDS011;7702;51.046;5.184;2024-01-30T05:09:10;9.97;;;6.30;;
15202;SDS011;7702;51.046;5.184;2024-01-30T05:11:36;7.60;;;5.80;;
15202;SDS011;7702;51.046;5.184;2024-01-30T05:14:05;8.13;;;6.17;;
15202;SDS011;7702;51.046;5.184;2024-01-30T05:16:32;7.77;;;5.57;;
15202;SDS011;7702;51.046;5.184;2024-01-30T05:18:59;8.37;;;5.80;;
15202;SDS011;7702;51.046;5.184;2024-01-30T05:21:24;5.90;;;5.27;;
15202;SDS011;7702;51.046;5.184;2024-01-30T05:23:50;6.40;;;5.80;;
15202;SDS011;7702;51.046;5.184;2024-01-30T05:26:16;9.07;;;6.40;;
15202;SDS011;7702;51.046;5.184;2024-01-30T05:28:43;7.43;;;5.97;;
15202;SDS011;7702;51.046;5.184;2024-01-30T05:31:13;7.00;;;5.57;;
15202;SDS011;7702;51.046;5.184;2024-01-30T05:33:40;9.00;;;5.60;;
15202;SDS011;7702;51.046;5.184;2024-01-30T05:36:05;8.73;;;6.13;;
15202;SDS011;7702;51.046;5.184;2024-01-30T05:38:31;6.70;;;5.83;;
15202;SDS011;7702;51.046;5.184;2024-01-30T05:40:57;6.50;;;5.53;;
15202;SDS011;7702;51.046;5.184;2024-01-30T05:43:23;7.93;;;5.57;;
15202;SDS011;7702;51.046;5.184;2024-01-30T05:45:49;5.93;;;5.33;;
15202;SDS011;7702;51.046;5.184;2024-01-30T05:48:15;7.83;;;5.30;;
15202;SDS011;7702;51.046;5.184;2024-01-30T05:50:41;8.23;;;5.90;;
15202;SDS011;7702;51.046;5.184;2024-01-30T05:53:07;6.90;;;5.63;;
15202;SDS011;7702;51.046;5.184;2024-01-30T05:55:32;9.93;;;6.30;;
15202;SDS011;7702;51.046;5.184;2024-01-30T05:57:58;7.10;;;5.83;;
15202;SDS011;7702;51.046;5.184;2024-01-30T06:00:24;6.53;;;5.10;;
15202;SDS011;7702;51.046;5.184;2024-01-30T06:02:50;8.20;;;5.10;;
15202;SDS011;7702;51.046;5.184;2024-01-30T06:05:16;8.00;;;5.37;;
15202;SDS011;7702;51.046;5.184;2024-01-30T06:07:41;6.07;;;5.40;;
15202;SDS011;7702;51.046;5.184;2024-01-30T06:10:07;6.37;;;5.23;;
15202;SDS011;7702;51.046;5.184;2024-01-30T06:12:34;6.77;;;5.20;;
15202;SDS011;7702;51.046;5.184;2024-01-30T06:15:00;6.50;;;5.20;;
15202;SDS011;7702;51.046;5.184;2024-01-30T06:17:27;6.93;;;5.30;;
15202;SDS011;7702;51.046;5.184;2024-01-30T06:19:53;5.47;;;4.70;;
15202;SDS011;7702;51.046;5.184;2024-01-30T06:22:19;5.33;;;4.83;;
15202;SDS011;7702;51.046;5.184;2024-01-30T06:24:45;5.70;;;4.87;;
15202;SDS011;7702;51.046;5.184;2024-01-30T06:27:13;6.43;;;4.87;;
15202;SDS011;7702;51.046;5.184;2024-01-30T06:29:39;7.07;;;5.10;;
15202;SDS011;7702;51.046;5.184;2024-01-30T06:32:05;5.80;;;5.20;;
15202;SDS011;7702;51.046;5.184;2024-01-30T06:34:31;6.13;;;5.53;;
15202;SDS011;7702;51.046;5.184;2024-01-30T06:36:57;6.90;;;5.37;;
15202;SDS011;7702;51.046;5.184;2024-01-30T06:39:23;5.30;;;4.80;;
15202;SDS011;7702;51.046;5.184;2024-01-30T06:41:50;5.67;;;5.00;;
15202;SDS011;7702;51.046;5.184;2024-01-30T06:44:15;7.40;;;5.40;;
15202;SDS011;7702;51.046;5.184;2024-01-30T06:46:41;7.83;;;6.00;;
15202;SDS011;7702;51.046;5.184;2024-01-30T06:49:07;6.97;;;5.13;;
15202;SDS011;7702;51.046;5.184;2024-01-30T06:51:33;6.37;;;5.73;;
15202;SDS011;7702;51.046;5.184;2024-01-30T06:53:58;6.83;;;6.23;;
15202;SDS011;7702;51.046;5.184;2024-01-30T06:56:24;5.90;;;5.40;;
15202;SDS011;7702;51.046;5.184;2024-01-30T06:58:50;7.67;;;5.37;;
15202;SDS011;7702;51.046;5.184;2024-01-30T07:01:16;5.90;;;5.30;;
15202;SDS011;7702;51.046;5.184;2024-01-30T07:03:43;6.17;;;5.37;;
15202;SDS011;7702;51.046;5.184;2024-01-30T07:06:09;6.73;;;6.03;;
15202;SDS011;7702;51.046;5.184;2024-01-30T07:08:37;7.53;;;5.37;;
15202;SDS011;7702;51.046;5.184;2024-01-30T07:11:04;7.27;;;5.40;;
15202;SDS011;7702;51.046;5.184;2024-01-30T07:13:31;8.57;;;5.93;;
15202;SDS011;7702;51.046;5.184;2024-01-30T07:15:57;7.30;;;5.77;;
15202;SDS011;7702;51.046;5.184;2024-01-30T07:18:23;7.37;;;6.13;;
15202;SDS011;7702;51.046;5.184;2024-01-30T07:20:49;7.70;;;5.83;;
15202;SDS011;7702;51.046;5.184;2024-01-30T07:23:15;6.60;;;5.80;;
15202;SDS011;7702;51.046;5.184;2024-01-30T07:25:42;8.07;;;6.33;;
15202;SDS011;7702;51.046;5.184;2024-01-30T07:28:13;7.43;;;6.17;;
15202;SDS011;7702;51.046;5.184;2024-01-30T07:30:41;7.53;;;5.83;;
15202;SDS011;7702;51.046;5.184;2024-01-30T07:33:08;7.83;;;6.00;;
15202;SDS011;7702;51.046;5.184;2024-01-30T07:35:35;7.17;;;5.93;;
15202;SDS011;7702;51.046;5.184;2024-01-30T07:38:01;6.47;;;5.33;;
15202;SDS011;7702;51.046;5.184;2024-01-30T07:40:27;6.53;;;5.73;;
15202;SDS011;7702;51.046;5.184;2024-01-30T07:42:55;8.33;;;5.90;;
15202;SDS011;7702;51.046;5.184;2024-01-30T07:45:21;7.73;;;5.57;;
15202;SDS011;7702;51.046;5.184;2024-01-30T07:47:49;7.47;;;6.07;;
15202;SDS011;7702;51.046;5.184;2024-01-30T07:50:15;6.87;;;5.57;;
15202;SDS011;7702;51.046;5.184;2024-01-30T07:52:41;7.13;;;5.90;;
15202;SDS011;7702;51.046;5.184;2024-01-30T07:55:07;7.10;;;6.13;;
15202;SDS011;7702;51.046;5.184;2024-01-30T07:57:33;7.20;;;6.50;;
15202;SDS011;7702;51.046;5.184;2024-01-30T07:59:59;7.07;;;6.37;;
15202;SDS011;7702;51.046;5.184;2024-01-30T08:02:25;6.97;;;6.27;;
15202;SDS011;7702;51.046;5.184;2024-01-30T08:04:51;11.07;;;6.57;;
15202;SDS011;7702;51.046;5.184;2024-01-30T08:07:17;7.33;;;6.43;;
15202;SDS011;7702;51.046;5.184;2024-01-30T08:09:43;10.10;;;6.70;;
15202;SDS011;7702;51.046;5.184;2024-01-30T08:12:09;7.50;;;6.37;;
15202;SDS011;7702;51.046;5.184;2024-01-30T08:14:35;7.67;;;6.53;;
15202;SDS011;7702;51.046;5.184;2024-01-30T08:17:01;7.63;;;6.00;;
15202;SDS011;7702;51.046;5.184;2024-01-30T08:19:27;7.57;;;6.10;;
15202;SDS011;7702;51.046;5.184;2024-01-30T08:21:52;9.80;;;6.30;;
15202;SDS011;7702;51.046;5.184;2024-01-30T08:24:18;8.23;;;6.80;;
15202;SDS011;7702;51.046;5.184;2024-01-30T08:26:43;10.80;;;7.20;;
15202;SDS011;7702;51.046;5.184;2024-01-30T08:29:10;8.90;;;7.53;;
15202;SDS011;7702;51.046;5.184;2024-01-30T08:31:35;7.50;;;6.07;;
15202;SDS011;7702;51.046;5.184;2024-01-30T08:34:01;7.70;;;6.40;;
15202;SDS011;7702;51.046;5.184;2024-01-30T08:36:27;7.33;;;6.63;;
15202;SDS011;7702;51.046;5.184;2024-01-30T08:38:53;8.03;;;6.70;;
15202;SDS011;7702;51.046;5.184;2024-01-30T08:41:18;8.33;;;6.27;;
15202;SDS011;7702;51.046;5.184;2024-01-30T08:43:44;8.07;;;6.13;;
15202;SDS011;7702;51.046;5.184;2024-01-30T08:46:10;9.63;;;6.17;;
15202;SDS011;7702;51.046;5.184;2024-01-30T08:48:36;7.30;;;6.60;;
15202;SDS011;7702;51.046;5.184;2024-01-30T08:51:03;8.43;;;7.03;;
15202;SDS011;7702;51.046;5.184;2024-01-30T08:53:28;7.67;;;6.80;;
15202;SDS011;7702;51.046;5.184;2024-01-30T08:55:54;8.73;;;7.00;;
15202;SDS011;7702;51.046;5.184;2024-01-30T08:58:20;7.17;;;6.10;;
15202;SDS011;7702;51.046;5.184;2024-01-30T09:00:45;7.70;;;6.90;;
15202;SDS011;7702;51.046;5.184;2024-01-30T09:03:11;7.53;;;6.33;;
15202;SDS011;7702;51.046;5.184;2024-01-30T09:05:37;6.60;;;6.00;;
15202;SDS011;7702;51.046;5.184;2024-01-30T09:08:03;11.03;;;6.53;;
15202;SDS011;7702;51.046;5.184;2024-01-30T09:10:29;7.53;;;6.00;;
15202;SDS011;7702;51.046;5.184;2024-01-30T09:12:54;7.17;;;6.43;;
15202;SDS011;7702;51.046;5.184;2024-01-30T09:15:20;9.07;;;5.73;;
15202;SDS011;7702;51.046;5.184;2024-01-30T09:17:45;8.37;;;6.70;;
15202;SDS011;7702;51.046;5.184;2024-01-30T09:20:11;6.70;;;6.10;;
15202;SDS011;7702;51.046;5.184;2024-01-30T09:22:37;6.80;;;6.07;;
15202;SDS011;7702;51.046;5.184;2024-01-30T09:25:03;7.40;;;6.63;;
15202;SDS011;7702;51.046;5.184;2024-01-30T09:27:29;7.90;;;6.03;;
15202;SDS011;7702;51.046;5.184;2024-01-30T09:29:56;7.13;;;6.07;;
15202;SDS011;7702;51.046;5.184;2024-01-30T09:32:22;8.07;;;7.03;;
15202;SDS011;7702;51.046;5.184;2024-01-30T09:34:47;7.93;;;6.30;;
15202;SDS011;7702;51.046;5.184;2024-01-30T09:37:13;11.70;;;6.90;;
15202;SDS011;7702;51.046;5.184;2024-01-30T09:39:40;8.07;;;6.10;;
15202;SDS011;7702;51.046;5.184;2024-01-30T09:42:17;9.47;;;6.43;;
15202;SDS011;7702;51.046;5.184;2024-01-30T09:44:51;7.80;;;5.73;;
15202;SDS011;7702;51.046;5.184;2024-01-30T09:47:17;10.00;;;6.17;;
15202;SDS011;7702;51.046;5.184;2024-01-30T09:49:43;8.60;;;6.83;;
15202;SDS011;7702;51.046;5.184;2024-01-30T09:52:09;7.57;;;6.33;;
15202;SDS011;7702;51.046;5.184;2024-01-30T09:54:35;8.70;;;6.80;;
15202;SDS011;7702;51.046;5.184;2024-01-30T09:57:03;11.53;;;7.17;;
15202;SDS011;7702;51.046;5.184;2024-01-30T09:59:29;8.43;;;7.07;;
15202;SDS011;7702;51.046;5.184;2024-01-30T10:01:55;7.87;;;7.00;;
15202;SDS011;7702;51.046;5.184;2024-01-30T10:04:21;8.53;;;6.63;;
15202;SDS011;7702;51.046;5.184;2024-01-30T10:06:47;8.03;;;7.03;;
15202;SDS011;7702;51.046;5.184;2024-01-30T10:09:13;11.40;;;7.63;;
15202;SDS011;7702;51.046;5.184;2024-01-30T10:11:39;9.33;;;7.40;;
15202;SDS011;7702;51.046;5.184;2024-01-30T10:14:05;9.97;;;7.10;;
15202;SDS011;7702;51.046;5.184;2024-01-30T10:16:30;7.73;;;6.80;;
15202;SDS011;7702;51.046;5.184;2024-01-30T10:18:56;8.03;;;6.70;;
15202;SDS011;7702;51.046;5.184;2024-01-30T10:21:22;9.80;;;6.73;;
15202;SDS011;7702;51.046;5.184;2024-01-30T10:23:49;9.77;;;6.57;;
15202;SDS011;7702;51.046;5.184;2024-01-30T10:26:16;9.77;;;6.87;;
15202;SDS011;7702;51.046;5.184;2024-01-30T10:28:45;7.77;;;6.00;;
15202;SDS011;7702;51.046;5.184;2024-01-30T10:31:10;11.80;;;6.77;;
15202;SDS011;7702;51.046;5.184;2024-01-30T10:33:36;8.07;;;6.97;;
15202;SDS011;7702;51.046;5.184;2024-01-30T10:36:05;7.67;;;6.53;;
15202;SDS011;7702;51.046;5.184;2024-01-30T10:38:31;10.13;;;7.33;;
15202;SDS011;7702;51.046;5.184;2024-01-30T10:40:58;9.17;;;6.87;;
15202;SDS011;7702;51.046;5.184;2024-01-30T10:43:31;8.10;;;6.57;;
15202;SDS011;7702;51.046;5.184;2024-01-30T10:46:18;10.90;;;7.07;;
15202;SDS011;7702;51.046;5.184;2024-01-30T10:48:58;9.53;;;7.10;;
15202;SDS011;7702;51.046;5.184;2024-01-30T10:51:27;11.87;;;6.97;;
15202;SDS011;7702;51.046;5.184;2024-01-30T10:53:53;7.47;;;6.30;;
15202;SDS011;7702;51.046;5.184;2024-01-30T10:56:21;13.90;;;8.30;;
15202;SDS011;7702;51.046;5.184;2024-01-30T10:58:50;12.97;;;8.07;;
15202;SDS011;7702;51.046;5.184;2024-01-30T11:01:19;9.23;;;7.00;;
15202;SDS011;7702;51.046;5.184;2024-01-30T11:03:48;13.43;;;7.70;;
15202;SDS011;7702;51.046;5.184;2024-01-30T11:06:17;15.00;;;11.10;;
15202;SDS011;7702;51.046;5.184;2024-01-30T11:08:44;10.97;;;7.33;;
15202;SDS011;7702;51.046;5.184;2024-01-30T11:11:25;8.83;;;7.33;;
15202;SDS011;7702;51.046;5.184;2024-01-30T11:13:50;10.47;;;7.80;;
15202;SDS011;7702;51.046;5.184;2024-01-30T11:16:16;9.83;;;6.97;;
15202;SDS011;7702;51.046;5.184;2024-01-30T11:18:42;11.27;;;7.47;;
15202;SDS011;7702;51.046;5.184;2024-01-30T11:21:14;10.83;;;7.80;;
15202;SDS011;7702;51.046;5.184;2024-01-30T11:23:40;9.87;;;7.33;;
15202;SDS011;7702;51.046;5.184;2024-01-30T11:26:10;10.43;;;7.70;;
15202;SDS011;7702;51.046;5.184;2024-01-30T11:28:37;10.43;;;8.23;;
15202;SDS011;7702;51.046;5.184;2024-01-30T11:31:04;10.43;;;8.00;;
15202;SDS011;7702;51.046;5.184;2024-01-30T11:33:31;9.83;;;7.53;;
15202;SDS011;7702;51.046;5.184;2024-01-30T11:35:58;10.20;;;7.37;;
15202;SDS011;7702;51.046;5.184;2024-01-30T11:38:25;10.37;;;7.80;;
15202;SDS011;7702;51.046;5.184;2024-01-30T11:40:53;9.10;;;7.33;;
15202;SDS011;7702;51.046;5.184;2024-01-30T11:43:20;10.50;;;7.33;;
15202;SDS011;7702;51.046;5.184;2024-01-30T11:45:46;11.80;;;7.97;;
15202;SDS011;7702;51.046;5.184;2024-01-30T11:48:12;10.50;;;8.13;;
15202;SDS011;7702;51.046;5.184;2024-01-30T11:50:38;9.70;;;7.73;;
15202;SDS011;7702;51.046;5.184;2024-01-30T11:53:07;9.83;;;7.93;;
15202;SDS011;7702;51.046;5.184;2024-01-30T11:55:33;10.13;;;7.63;;
15202;SDS011;7702;51.046;5.184;2024-01-30T11:58:01;12.73;;;7.20;;
15202;SDS011;7702;51.046;5.184;2024-01-30T12:00:27;10.40;;;7.73;;
15202;SDS011;7702;51.046;5.184;2024-01-30T12:02:54;11.50;;;7.20;;
15202;SDS011;7702;51.046;5.184;2024-01-30T12:05:24;9.50;;;7.33;;
15202;SDS011;7702;51.046;5.184;2024-01-30T12:07:50;8.33;;;6.50;;
15202;SDS011;7702;51.046;5.184;2024-01-30T12:10:16;8.77;;;6.80;;
15202;SDS011;7702;51.046;5.184;2024-01-30T12:12:43;10.57;;;7.07;;
15202;SDS011;7702;51.046;5.184;2024-01-30T12:15:13;9.73;;;6.57;;
15202;SDS011;7702;51.046;5.184;2024-01-30T12:17:39;7.47;;;6.03;;
15202;SDS011;7702;51.046;5.184;2024-01-30T12:22:41;12.23;;;6.60;;
15202;SDS011;7702;51.046;5.184;2024-01-30T12:25:08;10.80;;;5.80;;
15202;SDS011;7702;51.046;5.184;2024-01-30T12:27:34;8.00;;;4.93;;
15202;SDS011;7702;51.046;5.184;2024-01-30T12:30:01;13.83;;;5.47;;
15202;SDS011;7702;51.046;5.184;2024-01-30T12:32:30;6.70;;;5.40;;
15202;SDS011;7702;51.046;5.184;2024-01-30T12:34:55;6.67;;;5.97;;
15202;SDS011;7702;51.046;5.184;2024-01-30T12:37:24;7.40;;;3.70;;
15202;SDS011;7702;51.046;5.184;2024-01-30T12:39:53;7.90;;;4.53;;
15202;SDS011;7702;51.046;5.184;2024-01-30T12:42:19;7.97;;;3.87;;
15202;SDS011;7702;51.046;5.184;2024-01-30T12:44:48;4.67;;;2.73;;
15202;SDS011;7702;51.046;5.184;2024-01-30T12:47:14;5.43;;;2.63;;
15202;SDS011;7702;51.046;5.184;2024-01-30T12:49:43;5.67;;;2.73;;
15202;SDS011;7702;51.046;5.184;2024-01-30T12:52:14;4.27;;;2.23;;
15202;SDS011;7702;51.046;5.184;2024-01-30T12:54:41;7.87;;;2.87;;
15202;SDS011;7702;51.046;5.184;2024-01-30T12:57:07;4.63;;;1.97;;
15202;SDS011;7702;51.046;5.184;2024-01-30T12:59:33;2.53;;;1.43;;
15202;SDS011;7702;51.046;5.184;2024-01-30T13:02:00;3.20;;;1.47;;
15202;SDS011;7702;51.046;5.184;2024-01-30T13:04:27;3.30;;;1.83;;
15202;SDS011;7702;51.046;5.184;2024-01-30T13:06:52;2.50;;;1.50;;
15202;SDS011;7702;51.046;5.184;2024-01-30T13:09:18;2.80;;;1.20;;
15202;SDS011;7702;51.046;5.184;2024-01-30T13:11:44;3.13;;;1.30;;
15202;SDS011;7702;51.046;5.184;2024-01-30T13:14:10;4.20;;;1.03;;
15202;SDS011;7702;51.046;5.184;2024-01-30T13:16:36;1.83;;;1.23;;
15202;SDS011;7702;51.046;5.184;2024-01-30T13:19:02;2.47;;;0.93;;
15202;SDS011;7702;51.046;5.184;2024-01-30T13:21:28;2.40;;;1.03;;
15202;SDS011;7702;51.046;5.184;2024-01-30T13:23:54;1.60;;;0.90;;
15202;SDS011;7702;51.046;5.184;2024-01-30T13:26:20;1.40;;;1.10;;
15202;SDS011;7702;51.046;5.184;2024-01-30T13:28:46;2.33;;;0.87;;
15202;SDS011;7702;51.046;5.184;2024-01-30T13:31:12;1.37;;;0.60;;
15202;SDS011;7702;51.046;5.184;2024-01-30T13:33:42;1.03;;;0.60;;
15202;SDS011;7702;51.046;5.184;2024-01-30T13:36:08;2.00;;;0.70;;
15202;SDS011;7702;51.046;5.184;2024-01-30T13:38:35;1.97;;;0.67;;
15202;SDS011;7702;51.046;5.184;2024-01-30T13:41:01;0.67;;;0.60;;
15202;SDS011;7702;51.046;5.184;2024-01-30T13:43:27;1.10;;;0.90;;
15202;SDS011;7702;51.046;5.184;2024-01-30T13:45:53;2.80;;;0.90;;
15202;SDS011;7702;51.046;5.184;2024-01-30T13:48:19;3.00;;;1.00;;
15202;SDS011;7702;51.046;5.184;2024-01-30T13:50:44;1.67;;;0.70;;
15202;SDS011;7702;51.046;5.184;2024-01-30T13:53:11;2.83;;;0.77;;
15202;SDS011;7702;51.046;5.184;2024-01-30T13:55:37;1.40;;;0.70;;
15202;SDS011;7702;51.046;5.184;2024-01-30T13:58:04;1.17;;;0.60;;
15202;SDS011;7702;51.046;5.184;2024-01-30T14:00:31;2.03;;;0.60;;
15202;SDS011;7702;51.046;5.184;2024-01-30T14:02:57;1.90;;;0.60;;
15202;SDS011;7702;51.046;5.184;2024-01-30T14:05:24;3.20;;;0.57;;
15202;SDS011;7702;51.046;5.184;2024-01-30T14:07:50;2.00;;;0.90;;
15202;SDS011;7702;51.046;5.184;2024-01-30T14:10:16;1.93;;;0.83;;
15202;SDS011;7702;51.046;5.184;2024-01-30T14:12:43;3.17;;;0.87;;
15202;SDS011;7702;51.046;5.184;2024-01-30T14:15:09;1.50;;;0.70;;
15202;SDS011;7702;51.046;5.184;2024-01-30T14:17:37;2.77;;;1.00;;
15202;SDS011;7702;51.046;5.184;2024-01-30T14:20:03;1.90;;;0.70;;
15202;SDS011;7702;51.046;5.184;2024-01-30T14:22:30;2.77;;;1.13;;
15202;SDS011;7702;51.046;5.184;2024-01-30T14:24:56;1.90;;;0.60;;
15202;SDS011;7702;51.046;5.184;2024-01-30T14:27:22;2.77;;;0.80;;
15202;SDS011;7702;51.046;5.184;2024-01-30T14:29:47;1.23;;;0.70;;
15202;SDS011;7702;51.046;5.184;2024-01-30T14:32:13;2.93;;;0.90;;
15202;SDS011;7702;51.046;5.184;2024-01-30T14:34:39;2.17;;;0.67;;
15202;SDS011;7702;51.046;5.184;2024-01-30T14:37:05;2.87;;;0.90;;
15202;SDS011;7702;51.046;5.184;2024-01-30T14:39:31;3.10;;;1.93;;
15202;SDS011;7702;51.046;5.184;2024-01-30T14:41:57;3.90;;;1.03;;
15202;SDS011;7702;51.046;5.184;2024-01-30T14:44:23;2.90;;;0.77;;
15202;SDS011;7702;51.046;5.184;2024-01-30T14:46:49;3.23;;;1.00;;
15202;SDS011;7702;51.046;5.184;2024-01-30T14:49:15;2.50;;;1.00;;
15202;SDS011;7702;51.046;5.184;2024-01-30T14:51:41;2.23;;;0.97;;
15202;SDS011;7702;51.046;5.184;2024-01-30T14:54:07;1.27;;;0.73;;
15202;SDS011;7702;51.046;5.184;2024-01-30T14:56:33;3.53;;;0.90;;